createdAt,value
2023-10-04T00:01:46.967Z,2.15
2023-10-04T00:06:50.046Z,1.98
2023-10-04T00:11:51.644Z,2.05
2023-10-04T00:16:53.597Z,2.30
2023-10-04T00:21:56.506Z,2.30
2023-10-04T00:26:58.168Z,2.25
2023-10-04T00:31:59.734Z,2.15
2023-10-04T00:37:02.716Z,2.30
2023-10-04T00:42:04.257Z,2.20
2023-10-04T00:47:06.543Z,2.10
2023-10-04T00:52:09.600Z,1.92
2023-10-04T00:57:11.266Z,2.45
2023-10-04T01:02:12.877Z,2.30
2023-10-04T01:07:18.008Z,2.30
2023-10-04T01:12:22.676Z,2.60
2023-10-04T01:17:24.314Z,2.47
2023-10-04T01:22:28.207Z,2.45
2023-10-04T01:27:29.841Z,2.75
2023-10-04T01:32:31.461Z,2.70
2023-10-04T01:37:34.326Z,2.35
2023-10-04T01:42:35.925Z,2.40
2023-10-04T01:47:37.729Z,2.30
2023-10-04T01:52:40.721Z,2.45
2023-10-04T01:57:42.299Z,2.75
2023-10-04T02:02:44.895Z,2.38
2023-10-04T02:07:48.042Z,3.70
2023-10-04T02:12:50.855Z,2.83
2023-10-04T02:17:52.479Z,2.78
2023-10-04T02:22:55.467Z,3.10
2023-10-04T02:27:57.048Z,2.88
2023-10-04T02:32:58.754Z,2.35
2023-10-04T02:38:02.545Z,2.45
2023-10-04T02:43:04.454Z,2.45
2023-10-04T02:48:06.838Z,2.75
2023-10-04T02:53:10.355Z,2.95
2023-10-04T02:58:11.952Z,2.85
2023-10-04T03:03:15.041Z,2.63
2023-10-04T03:08:18.558Z,2.75
2023-10-04T03:13:22.482Z,2.90
2023-10-04T03:18:24.106Z,2.63
2023-10-04T03:23:27.683Z,2.60
2023-10-04T03:28:29.250Z,3.03
2023-10-04T03:33:30.820Z,2.88
2023-10-04T03:38:34.012Z,2.83
2023-10-04T03:43:35.570Z,2.95
2023-10-04T03:48:37.224Z,2.92
2023-10-04T03:53:40.835Z,3.13
2023-10-04T03:58:42.336Z,3.47
2023-10-04T04:03:45.002Z,2.78
2023-10-04T04:08:48.438Z,3.30
2023-10-04T04:13:50.374Z,2.60
2023-10-04T04:18:51.968Z,3.30
2023-10-04T04:23:55.209Z,2.80
2023-10-04T04:28:56.852Z,2.90
2023-10-04T04:33:58.486Z,3.20
2023-10-04T04:39:01.691Z,3.03
2023-10-04T04:44:03.320Z,3.22
2023-10-04T04:49:05.596Z,2.60
2023-10-04T04:54:08.910Z,2.90
2023-10-04T04:59:10.580Z,2.80
2023-10-04T05:04:12.370Z,3.20
2023-10-04T05:09:15.443Z,2.65
2023-10-04T05:14:17.040Z,3.03
2023-10-04T05:19:18.615Z,3.40
2023-10-04T05:24:21.570Z,3.10
2023-10-04T05:29:23.215Z,3.60
2023-10-04T05:34:24.843Z,2.85
2023-10-04T05:39:27.821Z,3.30
2023-10-04T05:44:29.349Z,3.03
2023-10-04T05:49:32.391Z,2.70
2023-10-04T05:54:35.414Z,3.30
2023-10-04T05:59:37.015Z,2.80
2023-10-04T06:04:38.638Z,3.10
2023-10-04T06:09:41.883Z,3.05
2023-10-04T06:14:43.449Z,2.67
2023-10-04T06:19:45.072Z,2.70
2023-10-04T06:24:47.972Z,2.70
2023-10-04T06:29:49.534Z,2.78
2023-10-04T06:34:51.161Z,3.05
2023-10-04T06:39:54.122Z,2.83
2023-10-04T06:44:55.621Z,2.72
2023-10-04T06:49:57.288Z,2.30
2023-10-04T06:55:00.720Z,2.35
2023-10-04T07:00:02.462Z,2.42
2023-10-04T07:05:04.219Z,2.50
2023-10-04T07:10:08.513Z,2.17
2023-10-04T07:15:11.388Z,2.00
2023-10-04T07:20:13.597Z,2.25
2023-10-04T07:25:16.487Z,1.65
2023-10-04T07:30:18.008Z,1.90
2023-10-04T07:35:20.916Z,1.70
2023-10-04T07:40:25.270Z,1.73
2023-10-04T07:45:27.616Z,2.10
2023-10-04T07:50:29.333Z,1.52
2023-10-04T07:55:32.288Z,1.80
2023-10-04T08:00:35.308Z,1.63
2023-10-04T08:05:37.312Z,1.70
2023-10-04T08:10:40.769Z,1.50
2023-10-04T08:15:42.416Z,1.80
2023-10-04T08:20:44.074Z,1.67
2023-10-04T08:25:47.073Z,1.77
2023-10-04T08:30:48.899Z,1.45
2023-10-04T08:35:50.530Z,1.73
2023-10-04T08:40:53.490Z,1.40
2023-10-04T08:45:57.516Z,1.27
2023-10-04T08:51:08.702Z,1.70
2023-10-04T08:56:14.957Z,1.75
2023-10-04T09:01:35.717Z,1.25
2023-10-04T09:06:37.643Z,1.30
2023-10-04T09:11:40.672Z,1.60
2023-10-04T09:16:42.389Z,1.52
2023-10-04T09:21:44.518Z,0.95
2023-10-04T09:26:54.010Z,1.30
2023-10-04T09:31:55.613Z,1.20
2023-10-04T09:36:58.055Z,1.40
2023-10-04T09:42:01.762Z,1.20
2023-10-04T09:47:04.286Z,1.23
2023-10-04T09:52:08.096Z,1.20
2023-10-04T09:57:11.185Z,1.40
2023-10-04T10:02:15.373Z,1.40
2023-10-04T10:07:20.722Z,1.30
2023-10-04T10:12:24.371Z,1.08
2023-10-04T10:17:26.174Z,0.85
2023-10-04T10:22:28.348Z,0.88
2023-10-04T10:27:31.245Z,1.23
2023-10-04T10:32:32.895Z,1.33
2023-10-04T10:37:34.588Z,1.20
2023-10-04T10:43:05.937Z,1.27
2023-10-04T10:48:08.928Z,1.17
2023-10-04T10:53:11.847Z,1.35
2023-10-04T10:58:13.759Z,1.52
2023-10-04T11:03:19.792Z,1.20
2023-10-04T11:08:21.569Z,1.50
2023-10-04T11:13:25.398Z,1.60
2023-10-04T11:18:30.092Z,1.70
2023-10-04T11:23:31.851Z,1.40
2023-10-04T11:28:33.980Z,1.50
2023-10-04T11:33:50.552Z,1.67
2023-10-04T11:38:53.169Z,1.52
2023-10-04T11:43:58.210Z,1.40
2023-10-04T11:49:16.026Z,1.10
2023-10-04T11:59:29.230Z,1.67
2023-10-04T12:04:33.752Z,2.33
2023-10-04T12:09:35.611Z,1.40
2023-10-04T12:14:37.280Z,1.00
2023-10-04T12:19:40.646Z,1.20
2023-10-04T12:24:42.668Z,1.30
2023-10-04T12:29:44.490Z,0.82
2023-10-04T12:34:47.971Z,1.10
2023-10-04T12:39:49.725Z,1.25
2023-10-04T12:44:52.950Z,1.50
2023-10-04T12:49:57.802Z,1.70
2023-10-04T12:54:59.369Z,1.60
2023-10-04T13:00:01.474Z,1.42
2023-10-04T13:05:05.135Z,1.30
2023-10-04T13:10:07.618Z,1.02
2023-10-04T13:15:10.492Z,1.35
2023-10-04T13:20:13.513Z,1.13
2023-10-04T13:25:15.341Z,1.10
2023-10-04T13:30:16.903Z,1.65
2023-10-04T13:35:19.798Z,1.65
2023-10-04T13:40:21.665Z,0.98
2023-10-04T13:45:23.373Z,1.67
2023-10-04T13:50:26.359Z,1.40
2023-10-04T13:55:27.867Z,1.70
2023-10-04T14:00:29.565Z,1.40
2023-10-04T14:05:32.650Z,1.40
2023-10-04T14:10:34.599Z,1.88
2023-10-04T14:15:36.138Z,0.98
2023-10-04T14:20:39.074Z,1.45
2023-10-04T14:25:40.826Z,1.20
2023-10-04T14:30:42.387Z,2.08
2023-10-04T14:35:46.601Z,1.17
2023-10-04T14:45:52.664Z,1.45
2023-10-04T14:56:03.220Z,1.60
2023-10-04T15:01:09.695Z,1.20
2023-10-04T15:06:15.739Z,1.85
2023-10-04T15:11:26.685Z,1.25
2023-10-04T15:16:28.364Z,1.40
2023-10-04T15:21:31.520Z,1.55
2023-10-04T15:26:33.111Z,1.45
2023-10-04T15:31:34.745Z,1.40
2023-10-04T15:36:37.784Z,1.13
2023-10-04T15:41:39.318Z,1.33
2023-10-04T15:46:41.023Z,1.50
2023-10-04T15:51:44.204Z,1.10
2023-10-04T15:56:45.834Z,1.27
2023-10-04T16:01:49.309Z,1.60
2023-10-04T16:06:52.431Z,2.22
2023-10-04T16:11:54.059Z,1.40
2023-10-04T16:16:55.669Z,1.60
2023-10-04T16:21:58.650Z,1.65
2023-10-04T16:27:00.247Z,1.85
2023-10-04T16:32:01.873Z,1.65
2023-10-04T16:37:04.941Z,1.80
2023-10-04T16:42:06.597Z,1.60
2023-10-04T16:47:08.175Z,2.20
2023-10-04T16:52:11.106Z,1.67
2023-10-04T16:57:12.652Z,1.50
2023-10-04T17:02:14.240Z,1.60
2023-10-04T17:07:17.382Z,1.92
2023-10-04T17:12:18.983Z,1.90
2023-10-04T17:17:20.601Z,1.88
2023-10-04T17:22:23.642Z,1.90
2023-10-04T17:27:25.250Z,1.73
2023-10-04T17:32:27.049Z,2.00
2023-10-04T17:37:30.068Z,2.05
2023-10-04T17:42:32.567Z,2.22
2023-10-04T17:47:34.251Z,1.92
2023-10-04T17:52:37.227Z,2.10
2023-10-04T17:57:39.442Z,2.20
2023-10-04T18:02:41.875Z,1.80
2023-10-04T18:07:44.886Z,1.83
2023-10-04T18:12:46.682Z,2.10
2023-10-04T18:17:49.344Z,1.90
2023-10-04T18:22:55.203Z,1.80
2023-10-04T18:27:56.854Z,2.00
2023-10-04T18:33:01.067Z,1.85
2023-10-04T18:38:05.380Z,2.05
2023-10-04T18:43:07.009Z,1.95
2023-10-04T18:48:08.761Z,2.53
2023-10-04T18:53:13.644Z,2.25
2023-10-04T18:58:15.423Z,2.33
2023-10-04T19:03:17.254Z,2.63
2023-10-04T19:08:20.338Z,2.50
2023-10-04T19:13:21.971Z,2.40
2023-10-04T19:18:23.581Z,2.00
2023-10-04T19:23:26.825Z,2.33
2023-10-04T19:28:28.652Z,2.33
2023-10-04T19:33:31.610Z,2.30
2023-10-04T19:38:34.693Z,2.50
2023-10-04T19:43:36.234Z,2.28
2023-10-04T19:48:39.290Z,2.10
2023-10-04T19:53:44.037Z,2.00
2023-10-04T19:58:45.639Z,2.42
2023-10-04T20:03:47.400Z,2.08
2023-10-04T20:08:50.779Z,1.85
2023-10-04T20:13:52.429Z,2.50
2023-10-04T20:18:54.005Z,2.00
2023-10-04T20:23:57.001Z,2.00
2023-10-04T20:28:58.722Z,2.33
2023-10-04T20:34:00.460Z,1.80
2023-10-04T20:39:03.563Z,2.22
2023-10-04T20:44:06.015Z,2.10
2023-10-04T20:49:07.976Z,1.88
2023-10-04T20:54:11.002Z,2.10
2023-10-04T20:59:12.600Z,2.42
2023-10-04T21:04:14.531Z,2.33
2023-10-04T21:09:17.491Z,2.03
2023-10-04T21:14:22.538Z,2.63
2023-10-04T21:19:24.204Z,2.22
2023-10-04T21:24:27.183Z,2.10
2023-10-04T21:29:28.842Z,2.40
2023-10-04T21:34:30.477Z,2.03
2023-10-04T21:39:33.465Z,2.20
2023-10-04T21:44:34.981Z,2.22
2023-10-04T21:49:36.805Z,2.15
2023-10-04T21:54:39.694Z,2.10
2023-10-04T21:59:41.281Z,2.70
2023-10-04T22:04:42.947Z,2.92
2023-10-04T22:09:46.410Z,2.50
2023-10-04T22:14:48.049Z,2.20
2023-10-04T22:19:49.606Z,2.60
2023-10-04T22:25:02.468Z,2.30
2023-10-04T22:30:06.181Z,2.35
2023-10-04T22:35:08.944Z,2.10
2023-10-04T22:40:15.069Z,2.03
2023-10-04T22:45:17.157Z,2.00
2023-10-04T22:50:19.282Z,2.10
2023-10-04T22:55:22.262Z,1.98
2023-10-04T23:00:24.034Z,2.00
2023-10-04T23:05:26.123Z,1.95
2023-10-04T23:10:29.295Z,1.95
2023-10-04T23:15:31.120Z,1.90
2023-10-04T23:20:32.791Z,2.20
2023-10-04T23:25:35.709Z,1.90
2023-10-04T23:30:37.235Z,2.78
2023-10-04T23:35:38.858Z,2.20
2023-10-04T23:40:42.204Z,1.85
2023-10-04T23:45:43.866Z,2.30
2023-10-04T23:50:45.412Z,2.00
2023-10-04T23:55:50.132Z,2.35
